Timeline UpdatesTrip UpdatesNews PostsPvt PostsTravel TipsAdmin PostsConv PostsFollowed PostsChat RequestsBlog PostsPNR Posts

Disclaimer
Search
 
 
Sun Sep 21, 2014 11:36:44 ISTHomeTrainsΣChainsAtlasPNRForumGalleryNewsFAQTripsMembersLoginFeedback
No Recent News for this Train
Other Trains in the News **new
Latest...
.
Tue Jan 15, 2013 (02:24AM)
⇐ Return Journey: Train# 54251

54252/Saharanpur-Lucknow Passenger

Time-Table HAS CHANGED.
Sep 02 (12:23AM)
Change Departure Station:
Change Arrival Station:
Post a Train Travel TipPost a Train Travel Tip **new
Post a Comment/Question/Picture/VideoPost a Comment/Question/Picture/Video
Pantry/Catering
✕ NO Pantry Car
✕ NO Catering
RSA - Rake Sharing
54232/54233/54251/54252/54253/54254
Rake/Coach Composition
.
Loco
GZB WAP1
News    PNR    Forum    Time-Table    Availability    Fare Chart    Map    Arr/Dep History    Trips    Gallery    ΣChains    X/O    Timeline    
Travel Time: 15h 20m    55 halts    Distance: 412 km    Avg Speed: 26 km/hr
Type: Passenger
Zone: NR/Northern
Departs @ 12:45
Platform# ???
SMTWTFS
Bundki/BEK 
Arrives @ 04:05 +1 night
Platform# 7
SMTWTFS
Lucknow Charbagh NR/LKO 

55 halts. 66 intermediate Stations between Bundki and Lucknow Charbagh NR

Show ALL intermediate Stations  Show Old Time-Table

#CodeStation NameX/OArrivesAvgDepartsAvgHaltPFDay#KmSpeedElevZoneAddress
1SRESaharanpur Junction (6)  -08:15---1-112.435276mNRSaharanpur, Uttar Pradesh
2BAEBaliakheri  08:27 08:32-08:29 08:34-2m--1-102.443274mNRSaharanpur, Uttar Pradesh
3CDLChodialaX  08:45 08:49-08:47 08:51-2m--1-91.844270mNRMDR 163W, Uttar Pradesh
4IQBIqbalpurXO  08:55 09:00-08:57 09:02-2m--1-85.221267mNRNational Highway 73, Uttar Pradesh
5RKRoorkee (3)X  09:06 09:23-09:08 09:25-2m11-77.717264mNRRoorkee - 247667, Uttarakhand
6DNRADhandhera (2)X  09:19 09:35-09:21 09:37-2m--1-74.943267mNRRoorkee - 247667, Uttarakhand
7LDRLandaura (2)  09:27 09:44-09:29 09:46-2m--1-69.943261mNRHaridwar, Uttarakhand
8DSNIDausni (2)X  09:35 09:53-09:37 09:55-2m--1-64.920244mNRLaksar, Uttarakhand
9LRJLaksar Junction (4)X  10:10-11:15-65m11-59.969238mNRLaksar, Uttarakhand
10RSIRaisi  11:22 11:25-11:24 11:27-2m--1-48.534231mNRLaksar, Uttarakhand
11BLWBalawali (2)  11:33 11:37-11:35 11:39-2m--1-42.841242mNRNational Highway 119, Uttar Pradesh
12CNKChandok (2)  11:43 11:49-11:45 11:51-2m--1-35.992257mNRChandok, Uttar Pradesh
13MZMMuzzampur Narayan (3)  11:53 11:59-11:55 12:01-2m--1-23.740258mNRJunction Point - NBD/LRJ/BJO, Uttar Pradesh
14FZLFazalpur (2)  12:02 12:09-12:04 12:11-2m--1-18.431256mNRState Highway 49, Uttar Pradesh
15NBDNajibabad Junction (3)  12:15 12:22-12:25 12:27-10 5m31-12.678269mNRNajibabad, Uttar Pradesh
16MSDRMurshadpurX  12:31 12:34-12:33 12:36-2m--1-3.631258mNRNagina, Uttar Pradesh
17BEKBundki»X  12:40 12:43-12:42 12:45-2m--10.059255mNRNagina, Uttar Pradesh
18NGGNagina (3)  12:50 12:55-12:55 12:57-5 2m--19.835247mNRNagina, Uttar Pradesh
19PNIPuraini  13:05 13:07-13:07 13:09-2m--115.742246mNRDhampur, Uttar Pradesh
20HBWHabibwala  13:14 13:17-13:16 13:19-2m--121.345239mNRNagina, Uttar Pradesh
21DPRDhampur  13:22 13:26-13:27 13:28-5 2m--126.635236mNRDhampur, Uttar Pradesh
22CAJChakraj MalX  13:38 13:40-13:40 13:42-2m--133.744229mNRNagina, Uttar Pradesh
23SEOSeoharaO  13:45 13:51-13:50 13:53-5 2m--140.338224mNRSeohara, Uttar Pradesh
24MWEMewa NawadaX  14:08 14:09-14:10 14:11-2m--150.449221mNRSahaspur, Uttar Pradesh
25KNTKanth  14:15 14:19-14:20 14:21-5 2m--156.940221mNRKanth, Uttar Pradesh
26MTBMatlabpur  14:34-14:36-2m--165.636216mNRMoradabad, Uttar Pradesh
27AWPAghwanpur  14:48 14:52-14:50 14:54-2m--175.243212mNRMoradabad, Uttar Pradesh
28HRHHarthalaX  14:56 15:02-14:59 15:04-3 2m--180.98206mNRMoradabad, Uttar Pradesh
29MBMoradabad Junction (7)XO15:45-17:00-75m--186.345201mNRMoradabad, Uttar Pradesh
30KGFKathghar  17:06 17:05-17:07-1 2m--190.046199mNRMoradabad, Uttar Pradesh
31DLPDalpatpur  17:18-17:20-2m--198.548195mNRNH-24, Uttar Pradesh
32MPHMundha PandeX  17:27 17:28-17:29 17:30-2m--1104.952191mNRNH 24, Uttar Pradesh
33RMURampur Junction (3)  17:40-17:42-2m--1113.635190mNRRampur, Uttar Pradesh
34SARShahzad Nagar  17:53-17:55-2m--1120.140186mNRNH 24, Uttar Pradesh
35DAMDhamora  18:02 18:03-18:04 18:05-2m--1125.441183mNRNH 24, Uttar Pradesh
36DUNDuganpur  18:11 18:13-18:13 18:15-2m--1130.850180mNRNH 24, Uttar Pradesh
37MILMilak  18:22-18:24-2m--1136.750180mNRMilak, Uttar Pradesh
38NRSNagaria SadatX  18:34-18:36-2m--1145.048177mNRNagaria Sadat, Uttar Pradesh
39DANDhanetaO  18:44 18:45-18:46 18:47-2m--1152.241174mNRNH 24, Uttar Pradesh
40BTOBhitaura  18:53 18:56-18:55 18:58-2m--1158.440173mNRFatehganj Pashchimi, Uttar Pradesh
41PKRAParsa KheraX  19:02 19:06-19:04 19:08-2m--1163.743170mNRNH 24, Uttar Pradesh
42CBJClutterbuckGanjXO  19:11 19:15-19:13 19:17-2m--1168.89172mNRBareilly, Uttar Pradesh
43BEBareilly Junction (4)X  20:10-20:20-10m11176.638174mNRBareilly, Uttar Pradesh
44CHTIChanehti Junction  20:25 20:26-20:27 20:28-2m--1180.444168mNRBareilly, Uttar Pradesh
45RYSRasuriyaX  20:35 20:37-20:37 20:39-2m--1187.057174mNRNH 24, Uttar Pradesh
46PMRPitambarpur  20:46 20:49-20:48 20:51-2m--1196.557171mNRPitambarpur, Uttar Pradesh
47TSATisua  20:57 21:00-20:59 21:02-2m--1205.053165mNRNational Highway 24, Uttar Pradesh
48BLPUBilpurX  21:07 21:10-21:09 21:12-2m--1212.054161mNRFatehganj, Uttar Pradesh
49MKMiranpur Katra  21:17 21:20-21:19 21:22-2m--1219.242162mNRShahjahanpur, Uttar Pradesh
50TLHTilharX  21:31 21:36-21:33 21:38-2m--1229.042163mNRTilhar, Uttar Pradesh
51BTRABanthraX  21:35 21:52-21:37 21:54-2m--1238.736154mNRNH 24, Uttar Pradesh
52SPNShahjahanpur Junction (3)  22:05 22:08-22:10 22:13-5m--1247.155156mNRShahjahanpur, Uttar Pradesh
53ROZARoza Junction (4)  22:18 22:21-22:20 22:23-2m--1254.426156mNRShahjahanpur, Uttar Pradesh
54KHKahiliyaX  22:45 22:43-22:47 22:45-2m--1263.057152mNRSH 25, Uttar Pradesh
55AIGAlgawanXO  22:56 22:54-22:58 22:56-2m--1271.547152mNRAlgawan, Uttar Pradesh
56AJIAnjhi ShahabadO  23:05 23:04-23:07 23:06-2m--1277.864148mNRAnjhi Shahabad, Uttar Pradesh
57TDPTodarpurX  23:15 23:14-23:17 23:16-2m--1286.355147mNRSH 25, Uttar Pradesh
58BEGBehtagokulX  23:24 23:23-23:26 23:25-2m--1292.759152mNRBehtagokul, Uttar Pradesh
59KUFKaurhaX  23:35 23:34-23:37 23:36-2m--1301.650148mNRSH 25, Uttar Pradesh
60HRIHardoi (5)  23:59 23:46-00:01 23:48-2m--1310.045146mNRHardoi, Uttar Pradesh
61KARKarnaX  00:14 00:01-00:16 00:03-2m--2319.956143mNRHardoi, Uttar Pradesh
62MSTMasit  00:24 00:11-00:26 00:13-2m--2327.452141mNRSH 25, Uttar Pradesh
63BGHBaghauliX  00:34 00:21-00:36 00:23-2m--2334.358141mNRsharda nehar, Uttar Pradesh
64BLMBalamau Junction (4)X  00:42 00:32-00:47 00:34-5 2m--2343.043139mNRBalamau, Uttar Pradesh
65DLQDalelnagar  00:59 00:46-01:01 00:48-2m--2351.748136mNRSH 25, Uttar Pradesh
66UTAUmar TaliX  01:08 00:56-01:10 00:58-2m--2358.140135mNRHardoi, Uttar Pradesh
67SANSandila (3)  01:17 01:06-01:19 01:08-2m--2363.460132mNRSandila, Uttar Pradesh
68RBDRahimabadX  01:31 01:19-01:33 01:21-2m--2374.451132mNRSH 25, Uttar Pradesh
69DILDilawarnagarXO  01:41 01:30-01:43 01:32-2m--2382.043133mNRSH 25, Uttar Pradesh
70MLDMalihabadX  01:50 01:40-01:52 01:42-2m--2387.658130mNRMalihabad, Uttar Pradesh
71KKJKakori (3)XO  02:01 01:52-02:03 01:54-2m--2397.34129mNRSH 25, Uttar Pradesh
72AMGAlamnagar (3)O  03:42 03:41-03:43-1 2m--2404.819126mNRLucknow, Uttar Pradesh
73LKOLucknow Charbagh NR (9)•  04:05--72411.8-123mNR226004, Uttar Pradesh
Scroll to Top
Scroll to Bottom